createdAt,value
2017-09-14T00:00:59.443Z,13.78
2017-09-14T00:01:59.442Z,13.82
2017-09-14T00:02:59.383Z,13.96
2017-09-14T00:03:59.066Z,13.99
2017-09-14T00:04:59.662Z,13.95
2017-09-14T00:05:59.331Z,13.77
2017-09-14T00:06:59.322Z,13.77
2017-09-14T00:07:59.603Z,13.71
2017-09-14T00:08:59.631Z,13.56
2017-09-14T00:09:59.575Z,13.63
2017-09-14T00:10:59.301Z,13.67
2017-09-14T00:11:59.531Z,13.67
2017-09-14T00:12:59.573Z,13.57
2017-09-14T00:13:59.492Z,13.48
2017-09-14T00:14:59.494Z,13.49
2017-09-14T00:15:59.452Z,13.63
2017-09-14T00:16:59.184Z,13.59
2017-09-14T00:17:59.425Z,13.65
2017-09-14T00:18:59.105Z,13.53
2017-09-14T00:19:59.073Z,13.45
2017-09-14T00:20:59.052Z,13.56
2017-09-14T00:21:59.343Z,13.66
2017-09-14T00:22:59.009Z,13.55
2017-09-14T00:23:59.001Z,13.59
2017-09-14T00:24:59.292Z,13.37
2017-09-14T00:25:58.952Z,13.48
2017-09-14T00:26:59.253Z,13.38
2017-09-14T00:27:59.291Z,13.38
2017-09-14T00:28:59.250Z,13.52
2017-09-14T00:29:58.880Z,13.57
2017-09-14T00:30:59.191Z,13.62
2017-09-14T00:31:58.831Z,13.71
2017-09-14T00:32:58.870Z,13.7
2017-09-14T00:33:59.151Z,13.82
2017-09-14T00:34:59.133Z,13.88
2017-09-14T00:35:58.766Z,13.92
2017-09-14T00:36:58.752Z,13.92
2017-09-14T00:37:59.280Z,13.74
2017-09-14T00:38:58.711Z,13.71
2017-09-14T00:39:59.042Z,13.7
2017-09-14T00:40:58.683Z,13.82
2017-09-14T00:41:58.971Z,13.84
2017-09-14T00:42:58.635Z,13.8
2017-09-14T00:43:58.611Z,13.75
2017-09-14T00:44:58.941Z,13.78
2017-09-14T00:45:58.581Z,13.67
2017-09-14T00:46:58.263Z,13.59
2017-09-14T00:47:58.901Z,13.63
2017-09-14T00:48:58.880Z,13.74
2017-09-14T00:49:58.922Z,13.72
2017-09-14T00:50:58.492Z,13.77
2017-09-14T00:51:58.591Z,13.74
2017-09-14T00:52:58.438Z,13.77
2017-09-14T00:53:58.793Z,13.78
2017-09-14T00:54:58.763Z,13.67
2017-09-14T00:55:58.400Z,13.62
2017-09-14T00:56:58.359Z,13.62
2017-09-14T00:57:58.691Z,13.74
2017-09-14T00:58:58.328Z,13.7
2017-09-14T00:59:58.620Z,13.82
2017-09-14T01:00:58.619Z,13.8
2017-09-14T01:01:58.330Z,13.82
2017-09-14T01:02:58.259Z,13.7
2017-09-14T01:03:58.229Z,13.78
2017-09-14T01:04:58.539Z,13.7
2017-09-14T01:05:58.519Z,13.66
2017-09-14T01:06:58.168Z,13.67
2017-09-14T01:07:58.509Z,13.57
2017-09-14T01:08:58.131Z,13.65
2017-09-14T01:09:58.136Z,13.81
2017-09-14T01:10:58.412Z,13.82
2017-09-14T01:11:58.398Z,13.84
2017-09-14T01:12:58.372Z,13.95
2017-09-14T01:13:57.732Z,13.84
2017-09-14T01:14:58.038Z,13.81
2017-09-14T01:15:57.999Z,13.78
2017-09-14T01:16:57.983Z,13.84
2017-09-14T01:17:58.309Z,13.74
2017-09-14T01:18:58.268Z,13.63
2017-09-14T01:19:58.221Z,13.66
2017-09-14T01:20:57.599Z,13.65
2017-09-14T01:21:57.879Z,13.74
2017-09-14T01:22:57.557Z,13.65
2017-09-14T01:23:57.848Z,13.65
2017-09-14T01:24:57.551Z,13.65
2017-09-14T01:25:58.119Z,13.63
2017-09-14T01:26:58.132Z,13.62
2017-09-14T01:27:58.087Z,13.72
2017-09-14T01:28:57.449Z,13.6
2017-09-14T01:29:57.728Z,13.45
2017-09-14T01:30:57.728Z,13.56
2017-09-14T01:31:57.700Z,13.6
2017-09-14T01:32:57.679Z,13.63
2017-09-14T01:33:57.674Z,13.63
2017-09-14T01:34:57.950Z,13.55
2017-09-14T01:35:57.629Z,13.55
2017-09-14T01:36:57.922Z,13.62
2017-09-14T01:37:57.928Z,13.57
2017-09-14T01:38:57.580Z,13.6
2017-09-14T01:39:57.857Z,13.66
2017-09-14T01:40:57.531Z,13.56
2017-09-14T01:41:57.509Z,13.62
2017-09-14T01:42:57.799Z,13.63
2017-09-14T01:43:57.472Z,13.65
2017-09-14T01:44:57.758Z,13.55
2017-09-14T01:45:57.740Z,13.48
2017-09-14T01:46:57.719Z,13.49
2017-09-14T01:47:57.711Z,13.48
2017-09-14T01:48:57.739Z,13.66
2017-09-14T01:49:57.669Z,13.59
2017-09-14T01:50:57.664Z,13.56
2017-09-14T01:51:57.340Z,13.49
2017-09-14T01:52:57.658Z,13.6
2017-09-14T01:53:57.578Z,13.49
2017-09-14T01:54:57.680Z,13.59
2017-09-14T01:55:57.238Z,13.47
2017-09-14T01:56:57.221Z,13.45
2017-09-14T01:57:57.520Z,13.37
2017-09-14T01:58:57.491Z,13.37
2017-09-14T01:59:57.470Z,13.4
2017-09-14T02:00:57.472Z,13.28
2017-09-14T02:01:57.439Z,13.4
2017-09-14T02:02:57.417Z,13.4
2017-09-14T02:03:57.399Z,13.44
2017-09-14T02:04:57.087Z,13.55
2017-09-14T02:05:57.409Z,13.55
2017-09-14T02:06:57.023Z,13.45
2017-09-14T02:07:57.009Z,13.48
2017-09-14T02:08:57.042Z,13.31
2017-09-14T02:09:57.289Z,13.42
2017-09-14T02:10:57.270Z,13.47
2017-09-14T02:11:57.251Z,13.44
2017-09-14T02:12:56.971Z,13.37
2017-09-14T02:13:57.219Z,13.22
2017-09-14T02:14:57.198Z,13.4
2017-09-14T02:15:57.168Z,13.44
2017-09-14T02:16:57.148Z,13.42
2017-09-14T02:17:56.512Z,13.4
2017-09-14T02:18:57.108Z,13.49
2017-09-14T02:19:57.166Z,13.49
2017-09-14T02:20:57.070Z,13.45
2017-09-14T02:21:57.069Z,13.47
2017-09-14T02:22:57.029Z,13.45
2017-09-14T02:23:56.700Z,13.6
2017-09-14T02:24:56.679Z,13.6
2017-09-14T02:25:56.965Z,13.52
2017-09-14T02:26:56.650Z,13.44
2017-09-14T02:27:56.628Z,13.53
2017-09-14T02:28:56.938Z,13.44
2017-09-14T02:29:56.280Z,13.18
2017-09-14T02:30:56.571Z,13.26
2017-09-14T02:31:56.549Z,13.23
2017-09-14T02:32:56.528Z,13.23
2017-09-14T02:33:56.808Z,13.22
2017-09-14T02:34:56.488Z,13.18
2017-09-14T02:35:56.788Z,13.23
2017-09-14T02:36:56.450Z,13.37
2017-09-14T02:37:56.440Z,13.29
2017-09-14T02:38:56.730Z,13.44
2017-09-14T02:39:56.713Z,13.53
2017-09-14T02:40:56.689Z,13.38
2017-09-14T02:41:56.360Z,13.33
2017-09-14T02:42:56.018Z,13.31
2017-09-14T02:43:56.689Z,13.18
2017-09-14T02:44:56.619Z,13.22
2017-09-14T02:45:56.278Z,13.22
2017-09-14T02:46:56.570Z,13.22
2017-09-14T02:47:56.560Z,13.16
2017-09-14T02:48:56.208Z,13.19
2017-09-14T02:49:56.529Z,13.1
2017-09-14T02:50:56.496Z,13.18
2017-09-14T02:51:56.469Z,13.11
2017-09-14T02:52:56.140Z,13.19
2017-09-14T02:53:56.440Z,13.25
2017-09-14T02:54:56.428Z,13.31
2017-09-14T02:55:56.398Z,13.29
2017-09-14T02:56:56.449Z,13.23
2017-09-14T02:57:56.048Z,13.19
2017-09-14T02:58:56.339Z,13.31
2017-09-14T02:59:56.014Z,13.23
2017-09-14T03:00:56.379Z,13.31
2017-09-14T03:01:55.971Z,13.25
2017-09-14T03:02:56.408Z,13.31
2017-09-14T03:03:56.246Z,13.33
2017-09-14T03:04:55.909Z,13.26
2017-09-14T03:05:55.899Z,13.29
2017-09-14T03:06:56.199Z,13.28
2017-09-14T03:07:55.850Z,13.38
2017-09-14T03:08:56.149Z,13.28
2017-09-14T03:09:56.128Z,13.29
2017-09-14T03:10:56.212Z,13.11
2017-09-14T03:11:55.470Z,13.15
2017-09-14T03:12:55.769Z,13.21
2017-09-14T03:13:56.040Z,13.15
2017-09-14T03:14:55.719Z,13.21
2017-09-14T03:15:55.387Z,13.16
2017-09-14T03:16:55.700Z,13.18
2017-09-14T03:17:55.672Z,13.26
2017-09-14T03:18:55.950Z,13.21
2017-09-14T03:19:55.621Z,13.38
2017-09-14T03:20:55.287Z,13.31
2017-09-14T03:21:55.889Z,13.23
2017-09-14T03:22:55.247Z,13.29
2017-09-14T03:23:55.563Z,13.26
2017-09-14T03:24:55.572Z,13.4
2017-09-14T03:25:55.184Z,13.19
2017-09-14T03:26:55.800Z,13.11
2017-09-14T03:27:55.470Z,13.03
2017-09-14T03:28:55.775Z,12.92
2017-09-14T03:29:55.738Z,13.07
2017-09-14T03:30:55.399Z,13.15
2017-09-14T03:31:55.388Z,13.19
2017-09-14T03:32:55.729Z,13.25
2017-09-14T03:33:55.360Z,13.15
2017-09-14T03:34:55.639Z,13.22
2017-09-14T03:35:55.309Z,13.23
2017-09-14T03:36:55.599Z,13.23
2017-09-14T03:37:55.268Z,13.4
2017-09-14T03:38:55.250Z,13.38
2017-09-14T03:39:55.550Z,13.28
2017-09-14T03:40:55.268Z,13.37
2017-09-14T03:41:55.524Z,13.33
2017-09-14T03:42:55.185Z,13.48
2017-09-14T03:43:55.500Z,13.44
2017-09-14T03:44:55.134Z,13.31
2017-09-14T03:45:55.119Z,13.29
2017-09-14T03:46:55.408Z,13.28
2017-09-14T03:47:55.641Z,13.41
2017-09-14T03:48:55.050Z,13.31
2017-09-14T03:49:55.451Z,13.41
2017-09-14T03:50:55.378Z,13.19
2017-09-14T03:51:55.300Z,13.08
2017-09-14T03:52:55.079Z,13.25
2017-09-14T03:53:55.391Z,13.21
2017-09-14T03:54:55.300Z,13.16
2017-09-14T03:55:55.300Z,13.19
2017-09-14T03:56:54.949Z,13.18
2017-09-14T03:57:55.266Z,13.29
2017-09-14T03:58:55.189Z,13.28
2017-09-14T03:59:55.160Z,13.25
2017-09-14T04:00:55.142Z,13.18
2017-09-14T04:01:55.127Z,13.21
2017-09-14T04:02:55.110Z,13.25
2017-09-14T04:03:54.769Z,13.23
2017-09-14T04:04:55.060Z,13.35
2017-09-14T04:05:54.730Z,13.42
2017-09-14T04:06:55.028Z,13.41
2017-09-14T04:07:54.699Z,13.4
2017-09-14T04:08:54.672Z,13.33
2017-09-14T04:09:54.975Z,13.35
2017-09-14T04:10:54.627Z,13.33
2017-09-14T04:11:54.680Z,13.4
2017-09-14T04:12:54.999Z,13.38
2017-09-14T04:13:54.576Z,13.4
2017-09-14T04:14:54.873Z,13.23
2017-09-14T04:15:54.539Z,13.29
2017-09-14T04:16:54.522Z,13.31
2017-09-14T04:17:54.809Z,13.35
2017-09-14T04:18:54.908Z,13.45
2017-09-14T04:19:54.779Z,13.45
2017-09-14T04:20:54.448Z,13.45
2017-09-14T04:21:54.416Z,13.53
2017-09-14T04:22:54.749Z,13.48
2017-09-14T04:23:54.707Z,13.33
2017-09-14T04:24:54.669Z,13.21
2017-09-14T04:25:54.660Z,13.16
2017-09-14T04:26:54.642Z,13.38
2017-09-14T04:27:54.298Z,13.23
2017-09-14T04:28:54.299Z,13.33
2017-09-14T04:29:54.578Z,13.38
2017-09-14T04:30:54.251Z,13.28
2017-09-14T04:31:54.537Z,13.19
2017-09-14T04:32:54.568Z,13.18
2017-09-14T04:33:54.190Z,13.22
2017-09-14T04:34:54.169Z,13.22
2017-09-14T04:35:53.855Z,13.14
2017-09-14T04:36:54.451Z,13.16
2017-09-14T04:37:53.799Z,13.22
2017-09-14T04:38:54.413Z,13.28
2017-09-14T04:39:54.065Z,13.16
2017-09-14T04:40:54.049Z,13.19
2017-09-14T04:41:54.038Z,13.31
2017-09-14T04:42:54.437Z,13.28
2017-09-14T04:43:54.312Z,13.21
2017-09-14T04:44:54.292Z,13.19
2017-09-14T04:45:54.289Z,13.11
2017-09-14T04:46:53.939Z,13.11
2017-09-14T04:47:54.230Z,13.21
2017-09-14T04:48:54.210Z,13.26
2017-09-14T04:49:53.870Z,13.11
2017-09-14T04:50:54.165Z,13.03
2017-09-14T04:51:53.850Z,12.98
2017-09-14T04:52:54.129Z,13.06
2017-09-14T04:53:53.801Z,13.07
2017-09-14T04:54:54.091Z,12.98
2017-09-14T04:55:54.062Z,12.97
2017-09-14T04:56:53.485Z,12.85
2017-09-14T04:57:54.037Z,12.81
2017-09-14T04:58:54.090Z,12.9
2017-09-14T04:59:53.999Z,12.79
2017-09-14T05:00:53.988Z,12.89
2017-09-14T05:01:53.979Z,12.96
2017-09-14T05:02:53.682Z,12.94
2017-09-14T05:03:53.608Z,12.9
2017-09-14T05:04:53.900Z,13.01
2017-09-14T05:05:53.890Z,12.98
2017-09-14T05:06:53.642Z,12.94
2017-09-14T05:07:53.520Z,12.85
2017-09-14T05:08:53.502Z,12.79
2017-09-14T05:09:53.499Z,12.89
2017-09-14T05:10:53.829Z,12.78
2017-09-14T05:11:53.138Z,12.83
2017-09-14T05:12:53.749Z,12.86
2017-09-14T05:13:53.441Z,12.94
2017-09-14T05:14:53.748Z,12.96
2017-09-14T05:15:53.692Z,12.98
2017-09-14T05:16:53.148Z,12.85
2017-09-14T05:17:53.032Z,12.98
2017-09-14T05:18:53.319Z,13
2017-09-14T05:19:53.658Z,12.98
2017-09-14T05:20:53.269Z,13
2017-09-14T05:21:52.946Z,13.07
2017-09-14T05:22:52.929Z,13.18
2017-09-14T05:23:53.530Z,13.16
2017-09-14T05:24:52.883Z,13.19
2017-09-14T05:25:53.511Z,13.14
2017-09-14T05:26:53.521Z,13.04
2017-09-14T05:27:53.162Z,13.03
2017-09-14T05:28:53.432Z,12.96
2017-09-14T05:29:53.101Z,12.98
2017-09-14T05:30:53.470Z,13.03
2017-09-14T05:31:53.061Z,13.14
2017-09-14T05:32:53.361Z,12.98
2017-09-14T05:33:53.328Z,13.03
2017-09-14T05:34:53.009Z,12.97
2017-09-14T05:35:52.990Z,13.06
2017-09-14T05:36:53.015Z,13.08
2017-09-14T05:37:52.941Z,13.16
2017-09-14T05:38:52.930Z,13.14
2017-09-14T05:39:52.909Z,13.18
2017-09-14T05:40:52.582Z,13.4
2017-09-14T05:41:52.859Z,13.41
2017-09-14T05:42:53.178Z,13.45
2017-09-14T05:43:52.839Z,13.42
2017-09-14T05:44:53.178Z,13.45
2017-09-14T05:45:52.830Z,13.31
2017-09-14T05:46:52.769Z,13.4
2017-09-14T05:47:52.762Z,13.42
2017-09-14T05:48:52.734Z,13.47
2017-09-14T05:49:53.038Z,13.55
2017-09-14T05:50:53.050Z,13.59
2017-09-14T05:51:52.682Z,13.75
2017-09-14T05:52:52.964Z,13.78
2017-09-14T05:53:52.960Z,13.74
2017-09-14T05:54:52.965Z,13.75
2017-09-14T05:55:52.605Z,13.7
2017-09-14T05:56:52.912Z,13.82
2017-09-14T05:57:53.121Z,13.72
2017-09-14T05:58:52.861Z,13.75
2017-09-14T05:59:52.846Z,13.63
2017-09-14T06:00:52.819Z,13.59
2017-09-14T06:01:52.810Z,13.56
2017-09-14T06:02:52.859Z,13.62
2017-09-14T06:03:52.771Z,13.53
2017-09-14T06:04:52.846Z,13.65
2017-09-14T06:05:52.818Z,13.53
2017-09-14T06:06:52.705Z,13.53
2017-09-14T06:07:52.366Z,13.47
2017-09-14T06:08:52.681Z,13.55
2017-09-14T06:09:52.329Z,13.59
2017-09-14T06:10:52.006Z,13.66
2017-09-14T06:11:52.609Z,13.62
2017-09-14T06:12:51.964Z,13.56
2017-09-14T06:13:52.571Z,13.45
2017-09-14T06:14:52.250Z,13.49
2017-09-14T06:15:52.236Z,13.56
2017-09-14T06:16:52.207Z,13.66
2017-09-14T06:17:52.489Z,13.65
2017-09-14T06:18:52.502Z,13.72
2017-09-14T06:19:52.139Z,13.57
2017-09-14T06:20:52.489Z,13.52
2017-09-14T06:21:52.109Z,13.63
2017-09-14T06:22:52.399Z,13.62
2017-09-14T06:23:52.390Z,13.55
2017-09-14T06:24:52.368Z,13.6
2017-09-14T06:25:52.347Z,13.84
2017-09-14T06:26:52.065Z,13.62
2017-09-14T06:27:52.003Z,13.59
2017-09-14T06:28:52.288Z,13.55
2017-09-14T06:29:52.279Z,13.45
2017-09-14T06:30:52.255Z,13.35
2017-09-14T06:31:51.910Z,13.42
2017-09-14T06:32:51.909Z,13.4
2017-09-14T06:33:51.893Z,13.22
2017-09-14T06:34:52.178Z,13.23
2017-09-14T06:35:52.156Z,13.4
2017-09-14T06:36:52.129Z,13.47
2017-09-14T06:37:52.121Z,13.47
2017-09-14T06:38:51.778Z,13.59
2017-09-14T06:39:51.773Z,13.63
2017-09-14T06:40:52.071Z,13.74
2017-09-14T06:41:51.717Z,13.78
2017-09-14T06:42:51.720Z,13.72
2017-09-14T06:43:52.003Z,13.65
2017-09-14T06:44:52.003Z,13.52
2017-09-14T06:45:51.960Z,13.62
2017-09-14T06:46:51.998Z,13.78
2017-09-14T06:47:51.611Z,13.77
2017-09-14T06:48:51.899Z,13.85
2017-09-14T06:49:51.889Z,13.77
2017-09-14T06:50:51.860Z,13.9
2017-09-14T06:51:51.851Z,13.81
2017-09-14T06:52:51.532Z,13.66
2017-09-14T06:53:51.491Z,13.66
2017-09-14T06:54:51.786Z,13.71
2017-09-14T06:55:51.763Z,13.75
2017-09-14T06:56:51.757Z,13.63
2017-09-14T06:57:51.418Z,13.63
2017-09-14T06:58:51.739Z,13.63
2017-09-14T06:59:51.400Z,13.63
2017-09-14T07:00:51.689Z,13.65
2017-09-14T07:01:51.350Z,13.75
2017-09-14T07:02:51.638Z,13.74
2017-09-14T07:03:51.619Z,13.75
2017-09-14T07:04:51.599Z,13.66
2017-09-14T07:05:51.589Z,13.8
2017-09-14T07:06:51.573Z,13.84
2017-09-14T07:07:51.560Z,13.8
2017-09-14T07:08:51.579Z,13.78
2017-09-14T07:09:51.530Z,13.65
2017-09-14T07:10:51.478Z,13.59
2017-09-14T07:11:51.169Z,13.74
2017-09-14T07:12:51.539Z,13.81
2017-09-14T07:13:51.442Z,13.95
2017-09-14T07:14:51.122Z,13.99
2017-09-14T07:15:51.091Z,13.92
2017-09-14T07:16:51.378Z,13.97
2017-09-14T07:17:51.350Z,13.72
2017-09-14T07:18:51.019Z,13.84
2017-09-14T07:19:51.317Z,13.89
2017-09-14T07:20:51.302Z,14.05
2017-09-14T07:21:51.278Z,14.18
2017-09-14T07:22:51.309Z,14.13
2017-09-14T07:23:51.257Z,14.18
2017-09-14T07:24:51.269Z,13.97
2017-09-14T07:25:51.292Z,14.03
2017-09-14T07:26:51.191Z,13.92
2017-09-14T07:27:51.287Z,13.96
2017-09-14T07:28:51.193Z,14.07
2017-09-14T07:29:50.821Z,14.1
2017-09-14T07:30:51.122Z,13.95
2017-09-14T07:31:50.779Z,13.93
2017-09-14T07:32:51.080Z,13.95
2017-09-14T07:33:51.078Z,13.82
2017-09-14T07:34:51.038Z,13.84
2017-09-14T07:35:50.753Z,13.8
2017-09-14T07:36:50.692Z,13.89
2017-09-14T07:37:50.351Z,13.81
2017-09-14T07:38:50.998Z,13.81
2017-09-14T07:39:50.637Z,13.77
2017-09-14T07:40:50.608Z,13.67
2017-09-14T07:41:50.917Z,13.71
2017-09-14T07:42:50.970Z,13.77
2017-09-14T07:43:50.865Z,13.65
2017-09-14T07:44:50.854Z,13.6
2017-09-14T07:45:50.839Z,13.59
2017-09-14T07:46:50.212Z,13.41
2017-09-14T07:47:50.473Z,13.37
2017-09-14T07:48:50.455Z,13.26
2017-09-14T07:49:50.751Z,13.22
2017-09-14T07:50:50.426Z,13.23
2017-09-14T07:51:50.091Z,13
2017-09-14T07:52:50.698Z,13.08
2017-09-14T07:53:50.378Z,12.9
2017-09-14T07:54:50.366Z,13.01
2017-09-14T07:55:50.634Z,12.88
2017-09-14T07:56:50.635Z,12.88
2017-09-14T07:57:50.603Z,12.89
2017-09-14T07:58:50.591Z,12.79
2017-09-14T07:59:50.562Z,12.89
2017-09-14T08:00:50.540Z,12.98
2017-09-14T08:01:50.528Z,12.89
2017-09-14T08:02:50.511Z,12.85
2017-09-14T08:03:50.168Z,12.86
2017-09-14T08:04:50.487Z,12.96
2017-09-14T08:05:50.139Z,13.01
2017-09-14T08:06:50.429Z,12.97
2017-09-14T08:07:50.419Z,12.96
2017-09-14T08:08:50.406Z,13.1
2017-09-14T08:09:50.372Z,13.15
2017-09-14T08:10:50.353Z,13.14
2017-09-14T08:11:50.340Z,12.73
2017-09-14T08:12:50.314Z,12.78
2017-09-14T08:13:50.321Z,12.89
2017-09-14T08:14:50.273Z,12.85
2017-09-14T08:15:50.273Z,12.65
2017-09-14T08:16:50.260Z,12.6
2017-09-14T08:17:50.234Z,12.79
2017-09-14T08:18:50.209Z,12.74
2017-09-14T08:19:49.861Z,12.78
2017-09-14T08:20:49.849Z,12.85
2017-09-14T08:21:50.150Z,12.96
2017-09-14T08:22:50.128Z,12.98
2017-09-14T08:23:50.113Z,12.97
2017-09-14T08:24:50.089Z,12.81
2017-09-14T08:25:50.059Z,12.94
2017-09-14T08:26:49.730Z,12.83
2017-09-14T08:27:49.411Z,12.85
2017-09-14T08:28:50.005Z,12.81
2017-09-14T08:29:50.043Z,12.82
2017-09-14T08:30:49.969Z,13
2017-09-14T08:31:49.950Z,12.97
2017-09-14T08:32:49.929Z,13.03
2017-09-14T08:33:49.911Z,12.98
2017-09-14T08:34:49.898Z,12.94
2017-09-14T08:35:49.582Z,13
2017-09-14T08:36:49.852Z,13.11
2017-09-14T08:37:49.540Z,13.19
2017-09-14T08:38:49.822Z,13.47
2017-09-14T08:39:49.485Z,13.31
2017-09-14T08:40:49.460Z,13.23
2017-09-14T08:41:49.761Z,13.26
2017-09-14T08:42:49.432Z,13.38
2017-09-14T08:43:49.419Z,13.44
2017-09-14T08:44:49.708Z,13.56
2017-09-14T08:45:49.679Z,13.53
2017-09-14T08:46:49.670Z,13.47
2017-09-14T08:47:49.646Z,13.15
2017-09-14T08:48:49.619Z,12.96
2017-09-14T08:49:49.299Z,13.11
2017-09-14T08:50:49.586Z,13.11
2017-09-14T08:51:49.004Z,13.01
2017-09-14T08:52:49.540Z,13.08
2017-09-14T08:53:49.529Z,13.1
2017-09-14T08:54:49.527Z,13.04
2017-09-14T08:55:48.870Z,13.04
2017-09-14T08:56:49.492Z,12.97
2017-09-14T08:57:49.146Z,12.97
2017-09-14T08:58:49.430Z,12.88
2017-09-14T08:59:49.410Z,12.85
2017-09-14T09:00:49.411Z,13.01
2017-09-14T09:01:49.390Z,12.98
2017-09-14T09:02:49.040Z,13.06
2017-09-14T09:03:49.021Z,13.11
2017-09-14T09:04:49.325Z,13.15
2017-09-14T09:05:48.992Z,13.08
2017-09-14T09:06:48.960Z,13.14
2017-09-14T09:07:49.260Z,13.1
2017-09-14T09:08:49.266Z,13.03
2017-09-14T09:09:49.230Z,12.86
2017-09-14T09:10:49.213Z,12.86
2017-09-14T09:11:49.190Z,12.89
2017-09-14T09:12:48.863Z,13.03
2017-09-14T09:13:49.159Z,12.97
2017-09-14T09:14:49.130Z,12.83
2017-09-14T09:15:48.792Z,12.81
2017-09-14T09:16:48.779Z,12.7
2017-09-14T09:17:49.081Z,12.58
2017-09-14T09:18:48.733Z,12.42
2017-09-14T09:19:49.028Z,12.4
2017-09-14T09:20:48.702Z,12.43
2017-09-14T09:21:49.001Z,12.35
2017-09-14T09:22:48.968Z,12.2
2017-09-14T09:23:48.648Z,12.2
2017-09-14T09:24:49.001Z,12.16
2017-09-14T09:25:48.596Z,12.21
2017-09-14T09:26:48.929Z,12.28
2017-09-14T09:27:48.863Z,12.35
2017-09-14T09:28:48.540Z,12.23
2017-09-14T09:29:48.829Z,12.17
2017-09-14T09:30:48.503Z,12.34
2017-09-14T09:31:48.801Z,12.39
2017-09-14T09:32:48.458Z,12.42
2017-09-14T09:33:48.454Z,12.52
2017-09-14T09:34:48.731Z,12.64
2017-09-14T09:35:48.720Z,12.67
2017-09-14T09:36:48.697Z,12.79
2017-09-14T09:37:48.671Z,12.55
2017-09-14T09:38:48.660Z,12.57
2017-09-14T09:39:48.341Z,12.45
2017-09-14T09:40:48.636Z,12.4
2017-09-14T09:41:47.985Z,12.57
2017-09-14T09:42:47.962Z,12.7
2017-09-14T09:43:48.252Z,12.85
2017-09-14T09:44:48.561Z,12.86
2017-09-14T09:45:48.204Z,12.83
2017-09-14T09:46:48.189Z,12.81
2017-09-14T09:47:48.166Z,13
2017-09-14T09:48:48.147Z,12.83
2017-09-14T09:49:47.825Z,12.89
2017-09-14T09:50:48.417Z,13.04
2017-09-14T09:51:48.110Z,13.15
2017-09-14T09:52:47.768Z,13.25
2017-09-14T09:53:48.382Z,13.65
2017-09-14T09:54:48.044Z,13.82
2017-09-14T09:55:48.031Z,13.8
2017-09-14T09:56:48.321Z,14.1
2017-09-14T09:57:47.670Z,14.26
2017-09-14T09:58:47.981Z,14.44
2017-09-14T09:59:48.273Z,14.53
2017-09-14T10:00:48.241Z,14.58
2017-09-14T10:01:48.219Z,14.39
2017-09-14T10:02:48.239Z,14.54
2017-09-14T10:03:48.192Z,14.55
2017-09-14T10:04:48.183Z,14.63
2017-09-14T10:05:48.180Z,14.54
2017-09-14T10:06:48.170Z,14.57
2017-09-14T10:07:48.142Z,14.58
2017-09-14T10:08:48.110Z,14.29
2017-09-14T10:09:47.546Z,14.5
2017-09-14T10:10:48.084Z,14.11
2017-09-14T10:11:48.074Z,14.35
2017-09-14T10:12:48.034Z,14.68
2017-09-14T10:13:48.062Z,15.31
2017-09-14T10:14:47.700Z,15.37
2017-09-14T10:15:48.013Z,15.77
2017-09-14T10:16:47.994Z,16.24
2017-09-14T10:17:47.991Z,16.46
2017-09-14T10:18:47.957Z,16.6
2017-09-14T10:19:47.972Z,16.96
2017-09-14T10:20:47.600Z,16.68
2017-09-14T10:21:47.892Z,15.98
2017-09-14T10:22:47.895Z,16.42
2017-09-14T10:23:47.883Z,16.9
2017-09-14T10:24:47.229Z,17.48
2017-09-14T10:25:47.596Z,17.15
2017-09-14T10:26:47.823Z,17.08
2017-09-14T10:27:47.825Z,17.06
2017-09-14T10:28:47.488Z,17.44
2017-09-14T10:29:47.800Z,17.85
2017-09-14T10:30:47.452Z,18.05
2017-09-14T10:31:47.750Z,18.01
2017-09-14T10:32:47.720Z,17.6
2017-09-14T10:33:47.743Z,17.55
2017-09-14T10:34:47.074Z,18.19
2017-09-14T10:35:47.501Z,18.48
2017-09-14T10:36:47.393Z,18.88
2017-09-14T10:37:47.357Z,19.14
2017-09-14T10:38:47.656Z,19.37
2017-09-14T10:39:47.127Z,19.19
2017-09-14T10:40:47.311Z,19.52
2017-09-14T10:41:47.602Z,19.06
2017-09-14T10:42:47.589Z,18.88
2017-09-14T10:43:47.580Z,19.21
2017-09-14T10:44:47.273Z,19.4
2017-09-14T10:45:47.572Z,19.67
2017-09-14T10:46:47.239Z,20.1
2017-09-14T10:47:47.541Z,20.18
2017-09-14T10:48:47.520Z,19.98
2017-09-14T10:49:47.493Z,19.31
2017-09-14T10:50:47.482Z,19.02
2017-09-14T10:51:47.463Z,18.88
2017-09-14T10:52:47.467Z,19.23
2017-09-14T10:53:47.441Z,19.22
2017-09-14T10:54:47.190Z,19.26
2017-09-14T10:55:47.429Z,19.06
2017-09-14T10:56:47.092Z,19.49
2017-09-14T10:57:47.397Z,19.19
2017-09-14T10:58:47.425Z,19.3
2017-09-14T10:59:47.412Z,19.11
2017-09-14T11:00:47.358Z,19.37
2017-09-14T11:01:47.332Z,19.66
2017-09-14T11:02:47.321Z,19.52
2017-09-14T11:03:47.006Z,19.83
2017-09-14T11:04:47.400Z,19.58
2017-09-14T11:05:47.290Z,19.52
2017-09-14T11:06:47.332Z,19.22
2017-09-14T11:07:47.280Z,18.96
2017-09-14T11:08:46.950Z,19.16
2017-09-14T11:09:46.910Z,18.84
2017-09-14T11:10:46.900Z,18.41
2017-09-14T11:11:46.890Z,18.22
2017-09-14T11:12:46.874Z,18.45
2017-09-14T11:13:47.171Z,18.45
2017-09-14T11:14:47.149Z,18.27
2017-09-14T11:15:47.149Z,17.93
2017-09-14T11:16:47.129Z,17.6
2017-09-14T11:17:46.812Z,17.3
2017-09-14T11:18:46.800Z,17.19
2017-09-14T11:19:46.770Z,17.44
2017-09-14T11:20:46.452Z,17.67
2017-09-14T11:21:46.428Z,17.7
2017-09-14T11:22:47.053Z,17.83
2017-09-14T11:23:46.732Z,17.78
2017-09-14T11:24:47.012Z,17.45
2017-09-14T11:25:46.672Z,17.65
2017-09-14T11:26:46.362Z,17.72
2017-09-14T11:27:47.011Z,18.05
2017-09-14T11:28:46.950Z,18.15
2017-09-14T11:29:46.933Z,18.26
2017-09-14T11:30:46.921Z,18.23
2017-09-14T11:31:46.923Z,17.93
2017-09-14T11:32:46.901Z,17.7
2017-09-14T11:33:46.862Z,17.42
2017-09-14T11:34:46.857Z,17.67
2017-09-14T11:35:46.850Z,17.8
2017-09-14T11:36:46.521Z,17.87
2017-09-14T11:37:46.831Z,17.95
2017-09-14T11:38:46.813Z,17.54
2017-09-14T11:39:46.470Z,17.15
2017-09-14T11:40:46.782Z,17.11
2017-09-14T11:41:46.456Z,17.14
2017-09-14T11:42:46.780Z,17.05
2017-09-14T11:43:46.732Z,17.06
2017-09-14T11:44:46.723Z,17.18
2017-09-14T11:45:46.702Z,17.56
2017-09-14T11:46:46.371Z,17.18
2017-09-14T11:47:46.651Z,17.06
2017-09-14T11:48:46.643Z,16.97
2017-09-14T11:49:46.322Z,17.21
2017-09-14T11:50:46.662Z,17.21
2017-09-14T11:51:46.304Z,17.16
2017-09-14T11:52:46.592Z,16.89
2017-09-14T11:53:46.572Z,16.63
2017-09-14T11:54:46.242Z,16.75
2017-09-14T11:55:46.223Z,17
2017-09-14T11:56:46.562Z,17.12
2017-09-14T11:57:46.198Z,16.81
2017-09-14T11:58:46.488Z,16.78
2017-09-14T11:59:46.171Z,16.71
2017-09-14T12:00:46.461Z,16.74
2017-09-14T12:01:46.443Z,16.75
2017-09-14T12:02:45.896Z,16.48
2017-09-14T12:03:46.421Z,16.28
2017-09-14T12:04:46.393Z,16.42
2017-09-14T12:05:46.382Z,16.23
2017-09-14T12:06:46.042Z,16.16
2017-09-14T12:07:46.052Z,16.15
2017-09-14T12:08:46.020Z,16.01
2017-09-14T12:09:46.330Z,16.17
2017-09-14T12:10:46.310Z,16.64
2017-09-14T12:11:46.279Z,17.05
2017-09-14T12:12:46.263Z,16.87
2017-09-14T12:13:45.931Z,16.93
2017-09-14T12:14:45.930Z,17.21
2017-09-14T12:15:46.215Z,17.58
2017-09-14T12:16:45.582Z,17.65
2017-09-14T12:17:45.881Z,17.19
2017-09-14T12:18:45.658Z,17.06
2017-09-14T12:19:45.832Z,17.24
2017-09-14T12:20:45.832Z,17.44
2017-09-14T12:21:45.819Z,17.62
2017-09-14T12:22:46.121Z,17.75
2017-09-14T12:23:45.790Z,17.44
2017-09-14T12:24:45.546Z,17.03
2017-09-14T12:25:46.052Z,16.78
2017-09-14T12:26:46.040Z,16.9
2017-09-14T12:27:45.722Z,16.85
2017-09-14T12:28:46.010Z,16.72
2017-09-14T12:29:46.002Z,16.46
2017-09-14T12:30:45.781Z,16.56
2017-09-14T12:31:45.652Z,16.81
2017-09-14T12:32:45.943Z,16.97
2017-09-14T12:33:45.935Z,17.08
2017-09-14T12:34:45.908Z,16.82
2017-09-14T12:35:45.892Z,16.96
2017-09-14T12:36:45.912Z,16.75
2017-09-14T12:37:45.570Z,16.91
2017-09-14T12:38:45.647Z,17.01
2017-09-14T12:39:45.838Z,17.09
2017-09-14T12:40:45.842Z,17.19
2017-09-14T12:41:45.492Z,17.24
2017-09-14T12:42:45.792Z,17.18
2017-09-14T12:43:45.766Z,16.82
2017-09-14T12:44:45.743Z,16.75
2017-09-14T12:45:45.476Z,16.69
2017-09-14T12:46:45.714Z,16.85
2017-09-14T12:47:45.714Z,16.57
2017-09-14T12:48:45.698Z,16.43
2017-09-14T12:49:45.690Z,16.6
2017-09-14T12:50:45.042Z,16.57
2017-09-14T12:51:45.642Z,16.63
2017-09-14T12:52:45.643Z,16.45
2017-09-14T12:53:45.621Z,16.61
2017-09-14T12:54:45.607Z,16.38
2017-09-14T12:55:45.580Z,16.38